createdAt,value
2023-01-13T00:00:30.838Z,99655.98
2023-01-13T00:02:35.920Z,99651.43
2023-01-13T00:04:40.609Z,99655.72
2023-01-13T00:06:45.404Z,99658.75
2023-01-13T00:08:49.930Z,99658.05
2023-01-13T00:10:54.514Z,99657.48
2023-01-13T00:12:58.977Z,99647.92
2023-01-13T00:15:03.466Z,99649.35
2023-01-13T00:17:07.973Z,99645.31
2023-01-13T00:19:12.473Z,99644.56
2023-01-13T00:21:17.041Z,99642.41
2023-01-13T00:23:21.586Z,99641.57
2023-01-13T00:25:26.093Z,99644.66
2023-01-13T00:27:30.667Z,99640.03
2023-01-13T00:29:35.238Z,99645.83
2023-01-13T00:31:39.833Z,99644.46
2023-01-13T00:33:44.362Z,99643.79
2023-01-13T00:35:48.819Z,99644.04
2023-01-13T00:37:53.390Z,99638.99
2023-01-13T00:39:57.969Z,99632.34
2023-01-13T00:42:02.597Z,99633.23
2023-01-13T00:44:07.299Z,99626.92
2023-01-13T00:46:11.959Z,99635.52
2023-01-13T00:48:16.545Z,99633.27
2023-01-13T00:50:21.039Z,99627.13
2023-01-13T00:52:25.520Z,99632.02
2023-01-13T00:54:29.987Z,99625.98
2023-01-13T00:56:41.583Z,99629.13
2023-01-13T00:58:46.150Z,99626.05
2023-01-13T01:00:50.665Z,99626.13
2023-01-13T01:02:55.514Z,99624.55
2023-01-13T01:05:00.586Z,99618.39
2023-01-13T01:07:05.040Z,99620.44
2023-01-13T01:09:09.507Z,99617.8
2023-01-13T01:11:14.000Z,99619.16
2023-01-13T01:13:18.626Z,99618.48
2023-01-13T01:15:23.151Z,99615.55
2023-01-13T01:17:27.727Z,99615.5
2023-01-13T01:19:32.360Z,99610.77
2023-01-13T01:21:36.985Z,99610.45
2023-01-13T01:23:41.444Z,99608.83
2023-01-13T01:25:45.904Z,99601.44
2023-01-13T01:27:50.418Z,99599.71
2023-01-13T01:29:54.876Z,99598.17
2023-01-13T01:31:59.380Z,99588.91
2023-01-13T01:34:03.992Z,99591.86
2023-01-13T01:36:08.451Z,99588.17
2023-01-13T01:38:13.036Z,99576.39
2023-01-13T01:40:17.513Z,99576.45
2023-01-13T01:42:21.951Z,99570.73
2023-01-13T01:44:26.421Z,99571.72
2023-01-13T01:46:31.041Z,99567.38
2023-01-13T01:48:35.664Z,99567.95
2023-01-13T01:50:40.221Z,99563.63
2023-01-13T01:52:44.684Z,99564.55
2023-01-13T01:54:49.133Z,99569.33
2023-01-13T01:56:53.655Z,99564.97
2023-01-13T01:58:58.347Z,99564.09
2023-01-13T02:01:03.382Z,99563.06
2023-01-13T02:03:08.028Z,99566.02
2023-01-13T02:05:12.513Z,99556.58
2023-01-13T02:07:17.088Z,99549.89
2023-01-13T02:09:21.631Z,99541.31
2023-01-13T02:11:26.106Z,99538.83
2023-01-13T02:13:30.633Z,99536.08
2023-01-13T02:15:35.192Z,99538.69
2023-01-13T02:17:39.921Z,99538.45
2023-01-13T02:19:44.416Z,99538.02
2023-01-13T02:21:48.903Z,99546.02
2023-01-13T02:23:53.329Z,99538.78
2023-01-13T02:25:57.887Z,99550.75
2023-01-13T02:28:02.822Z,99557.17
2023-01-13T02:30:07.661Z,99555.55
2023-01-13T02:32:12.128Z,99553.84
2023-01-13T02:34:16.617Z,99557.17
2023-01-13T02:36:21.236Z,99552.11
2023-01-13T02:38:25.766Z,99548.03
2023-01-13T02:40:30.271Z,99553.16
2023-01-13T02:42:34.849Z,99547.7
2023-01-13T02:44:39.347Z,99549.23
2023-01-13T02:46:43.836Z,99554.45
2023-01-13T02:48:48.332Z,99547.2
2023-01-13T02:50:52.794Z,99544.8
2023-01-13T02:54:46.815Z,99549.54
2023-01-13T02:56:51.254Z,99550.75
2023-01-13T02:58:55.746Z,99546.61
2023-01-13T03:01:00.505Z,99553.25
2023-01-13T03:03:05.219Z,99552.23
2023-01-13T03:05:09.771Z,99551.93
2023-01-13T03:07:14.166Z,99549.3
2023-01-13T03:09:18.522Z,99543.3
2023-01-13T03:11:22.872Z,99544.88
2023-01-13T03:13:27.254Z,99546.47
2023-01-13T03:15:31.598Z,99540.21
2023-01-13T03:17:35.940Z,99539.78
2023-01-13T03:19:40.323Z,99533.08
2023-01-13T03:21:44.651Z,99537.59
2023-01-13T03:23:49.002Z,99537.56
2023-01-13T03:25:53.356Z,99537.14
2023-01-13T03:27:57.692Z,99534.58
2023-01-13T03:30:02.225Z,99529.47
2023-01-13T03:32:06.686Z,99531.83
2023-01-13T03:34:11.033Z,99535.7
2023-01-13T03:36:15.418Z,99531.16
2023-01-13T03:38:19.722Z,99538.18
2023-01-13T03:40:24.073Z,99533.51
2023-01-13T03:42:28.430Z,99533.32
2023-01-13T03:44:33.933Z,99535.23
2023-01-13T03:46:38.296Z,99533.14
2023-01-13T03:48:42.661Z,99531.53
2023-01-13T03:50:47.034Z,99533.81
2023-01-13T03:52:51.655Z,99530.58
2023-01-13T03:54:55.981Z,99533.27
2023-01-13T03:57:00.351Z,99528.27
2023-01-13T03:59:04.720Z,99526.45
2023-01-13T04:01:09.364Z,99526.7
2023-01-13T04:03:13.944Z,99527.19
2023-01-13T04:05:18.260Z,99526.26
2023-01-13T04:07:22.632Z,99521.4
2023-01-13T04:09:26.978Z,99520.55
2023-01-13T04:11:31.334Z,99522.14
2023-01-13T04:13:35.730Z,99521.06
2023-01-13T04:15:40.171Z,99521.43
2023-01-13T04:17:44.663Z,99523.14
2023-01-13T04:19:49.020Z,99517.83
2023-01-13T04:21:53.376Z,99524.7
2023-01-13T04:23:57.735Z,99522.73
2023-01-13T04:26:02.063Z,99519.94
2023-01-13T04:28:06.478Z,99518.13
2023-01-13T04:30:10.854Z,99513.45
2023-01-13T04:32:15.189Z,99513.53
2023-01-13T04:34:19.541Z,99512.27
2023-01-13T04:36:23.906Z,99507.75
2023-01-13T04:38:28.391Z,99506.56
2023-01-13T04:40:32.840Z,99503.31
2023-01-13T04:42:37.288Z,99505.02
2023-01-13T04:44:41.698Z,99501.39
2023-01-13T04:46:46.036Z,99502.01
2023-01-13T04:48:50.327Z,99505.09
2023-01-13T04:50:54.663Z,99501.99
2023-01-13T04:52:58.991Z,99495.32
2023-01-13T04:55:03.390Z,99498.63
2023-01-13T04:57:07.809Z,99495.44
2023-01-13T04:59:12.127Z,99499.87
2023-01-13T05:01:16.769Z,99497.94
2023-01-13T05:03:21.264Z,99493.3
2023-01-13T05:05:25.596Z,99501.23
2023-01-13T05:07:29.940Z,99495.61
2023-01-13T05:09:34.289Z,99499.48
2023-01-13T05:11:38.634Z,99492.93
2023-01-13T05:13:43.119Z,99495.45
2023-01-13T05:15:47.727Z,99489.77
2023-01-13T05:17:52.182Z,99495.65
2023-01-13T05:19:56.568Z,99492.44
2023-01-13T05:22:00.906Z,99497.2
2023-01-13T05:24:05.276Z,99500.61
2023-01-13T05:26:09.637Z,99502.78
2023-01-13T05:28:13.948Z,99500.23
2023-01-13T05:30:18.436Z,99500.05
2023-01-13T05:32:22.775Z,99499.03
2023-01-13T05:34:27.112Z,99497.33
2023-01-13T05:36:31.575Z,99500.27
2023-01-13T05:38:36.023Z,99498.56
2023-01-13T05:40:40.371Z,99499.39
2023-01-13T05:42:44.780Z,99504.53
2023-01-13T05:44:49.119Z,99500.35
2023-01-13T05:46:53.716Z,99499.27
2023-01-13T05:48:58.177Z,99499.99
2023-01-13T05:51:02.591Z,99505.32
2023-01-13T05:53:07.061Z,99506.44
2023-01-13T05:55:11.435Z,99504.93
2023-01-13T05:57:15.848Z,99504.13
2023-01-13T05:59:20.209Z,99504.7
2023-01-13T06:01:24.634Z,99499.75
2023-01-13T06:03:29.177Z,99499.89
2023-01-13T06:05:33.609Z,99495.86
2023-01-13T06:07:37.938Z,99499.27
2023-01-13T06:09:42.324Z,99502.79
2023-01-13T06:11:46.665Z,99490.89
2023-01-13T06:13:51.108Z,99495.79
2023-01-13T06:15:55.674Z,99487.02
2023-01-13T06:18:00.148Z,99490.66
2023-01-13T06:20:04.565Z,99495.48
2023-01-13T06:22:09.004Z,99497.92
2023-01-13T06:24:13.468Z,99496.63
2023-01-13T06:26:17.838Z,99500.86
2023-01-13T06:28:22.197Z,99496.17
2023-01-13T06:30:26.560Z,99494.92
2023-01-13T06:32:30.877Z,99490.38
2023-01-13T06:34:35.229Z,99494.28
2023-01-13T06:36:39.669Z,99493.18
2023-01-13T06:38:44.076Z,99493.24
2023-01-13T06:40:48.546Z,99493.37
2023-01-13T06:42:52.852Z,99500.46
2023-01-13T06:44:57.198Z,99499.09
2023-01-13T06:47:01.692Z,99496.06
2023-01-13T06:49:06.097Z,99494.91
2023-01-13T06:51:10.664Z,99496.61
2023-01-13T06:53:15.292Z,99501.11
2023-01-13T06:55:19.648Z,99496.45
2023-01-13T06:57:24.006Z,99500.98
2023-01-13T06:59:28.345Z,99495.49
2023-01-13T07:01:33.063Z,99502.07
2023-01-13T07:03:37.639Z,99500.72
2023-01-13T07:05:42.008Z,99500.78
2023-01-13T07:07:46.450Z,99499.65
2023-01-13T07:09:50.791Z,99501.81
2023-01-13T07:11:55.188Z,99497.7
2023-01-13T07:13:59.541Z,99501.06
2023-01-13T07:16:04.254Z,99502.47
2023-01-13T07:18:08.784Z,99506.56
2023-01-13T07:20:13.340Z,99505.42
2023-01-13T07:22:17.942Z,99506.34
2023-01-13T07:24:22.331Z,99502.34
2023-01-13T07:26:26.910Z,99505.23
2023-01-13T07:28:31.493Z,99508.77
2023-01-13T07:30:35.904Z,99515.65
2023-01-13T07:32:40.422Z,99509.66
2023-01-13T07:34:44.777Z,99507.34
2023-01-13T07:36:49.329Z,99503.57
2023-01-13T07:38:55.951Z,99508.78
2023-01-13T07:41:00.291Z,99503.03
2023-01-13T07:43:04.667Z,99510.66
2023-01-13T07:45:12.276Z,99508.59
2023-01-13T07:47:16.976Z,99510.36
2023-01-13T07:49:21.360Z,99513.09
2023-01-13T07:51:25.724Z,99514.61
2023-01-13T07:53:30.067Z,99512.05
2023-01-13T07:55:34.484Z,99515.44
2023-01-13T07:57:38.846Z,99514.81
2023-01-13T07:59:43.269Z,99517.09
2023-01-13T08:01:48.164Z,99515.03
2023-01-13T08:03:52.781Z,99516.47
2023-01-13T08:05:57.224Z,99517.58
2023-01-13T08:08:01.678Z,99515.55
2023-01-13T08:10:06.161Z,99515.7
2023-01-13T08:12:10.572Z,99515.97
2023-01-13T08:14:15.030Z,99515.77
2023-01-13T08:16:19.420Z,99507.84
2023-01-13T08:18:23.825Z,99513.91
2023-01-13T08:20:28.302Z,99520.3
2023-01-13T08:22:32.629Z,99521.63
2023-01-13T08:24:37.064Z,99517.2
2023-01-13T08:26:41.437Z,99520.59
2023-01-13T08:28:45.929Z,99524.19
2023-01-13T08:30:50.446Z,99524.67
2023-01-13T08:32:54.937Z,99524.04
2023-01-13T08:34:59.306Z,99525.22
2023-01-13T08:37:03.660Z,99519.05
2023-01-13T08:39:08.088Z,99519.34
2023-01-13T08:41:12.442Z,99523.58
2023-01-13T08:43:16.868Z,99518.28
2023-01-13T08:45:21.280Z,99514.39
2023-01-13T08:47:25.691Z,99512.61
2023-01-13T08:49:30.165Z,99516.64
2023-01-13T08:51:34.536Z,99515.48
2023-01-13T08:53:38.894Z,99516.23
2023-01-13T08:55:43.258Z,99521.47
2023-01-13T08:57:47.633Z,99523.47
2023-01-13T08:59:52.055Z,99526.63
2023-01-13T09:01:56.880Z,99535.53
2023-01-13T09:04:01.640Z,99532.69
2023-01-13T09:06:06.205Z,99531.65
2023-01-13T09:08:10.615Z,99533.1
2023-01-13T09:10:14.959Z,99534
2023-01-13T09:12:19.316Z,99542.42
2023-01-13T09:14:23.662Z,99542.31
2023-01-13T09:16:28.032Z,99546.01
2023-01-13T09:18:32.421Z,99547.07
2023-01-13T09:20:36.908Z,99548.67
2023-01-13T09:22:41.320Z,99544.25
2023-01-13T09:24:45.701Z,99545.5
2023-01-13T09:26:50.168Z,99545.05
2023-01-13T09:28:54.628Z,99546.69
2023-01-13T09:30:59.088Z,99543.65
2023-01-13T09:33:03.558Z,99543.68
2023-01-13T09:35:08.030Z,99541.84
2023-01-13T09:37:12.413Z,99538.01
2023-01-13T09:39:16.865Z,99542.73
2023-01-13T09:41:21.248Z,99547.45
2023-01-13T09:43:25.631Z,99540.83
2023-01-13T09:45:29.967Z,99543.25
2023-01-13T09:47:34.326Z,99539.13
2023-01-13T09:49:38.748Z,99534.73
2023-01-13T09:51:43.291Z,99540.02
2023-01-13T09:53:47.834Z,99541.61
2023-01-13T09:55:52.251Z,99538.97
2023-01-13T09:57:56.601Z,99531.88
2023-01-13T10:00:01.018Z,99525.78
2023-01-13T10:02:05.374Z,99521.34
2023-01-13T10:04:10.363Z,99518.83
2023-01-13T10:06:14.739Z,99523.43
2023-01-13T10:08:19.090Z,99517.06
2023-01-13T10:10:23.548Z,99522.5
2023-01-13T10:12:27.922Z,99510.7
2023-01-13T10:14:32.259Z,99514.76
2023-01-13T10:16:36.617Z,99511.48
2023-01-13T10:18:41.050Z,99505.81
2023-01-13T10:20:45.460Z,99505.18
2023-01-13T10:22:49.850Z,99504.16
2023-01-13T10:24:54.290Z,99505.63
2023-01-13T10:26:58.618Z,99501.25
2023-01-13T10:29:03.199Z,99498.83
2023-01-13T10:31:07.682Z,99494.39
2023-01-13T10:33:12.183Z,99494.48
2023-01-13T10:35:16.653Z,99493.13
2023-01-13T10:37:21.250Z,99491.22
2023-01-13T10:39:25.594Z,99487.3
2023-01-13T10:41:30.049Z,99486.06
2023-01-13T10:43:34.583Z,99490.73
2023-01-13T10:45:38.929Z,99486.15
2023-01-13T10:47:43.356Z,99487.61
2023-01-13T10:49:47.716Z,99479.64
2023-01-13T10:51:52.170Z,99481.14
2023-01-13T10:53:56.641Z,99477.89
2023-01-13T10:56:01.071Z,99474.25
2023-01-13T10:58:05.448Z,99481.13
2023-01-13T11:00:09.808Z,99468.77
2023-01-13T11:02:26.895Z,99474.33
2023-01-13T11:04:31.772Z,99475.34
2023-01-13T11:06:36.242Z,99473.58
2023-01-13T11:08:40.602Z,99468.36
2023-01-13T11:10:44.939Z,99472.79
2023-01-13T11:12:51.760Z,99476.31
2023-01-13T11:14:56.127Z,99473.67
2023-01-13T11:17:00.473Z,99472.2
2023-01-13T11:19:04.903Z,99470.98
2023-01-13T11:21:09.274Z,99474.64
2023-01-13T11:23:13.599Z,99481.16
2023-01-13T11:25:17.941Z,99479.06
2023-01-13T11:27:22.336Z,99476.72
2023-01-13T11:29:26.676Z,99471.28
2023-01-13T11:31:31.310Z,99466.72
2023-01-13T11:33:35.798Z,99462.3
2023-01-13T11:35:40.271Z,99456.98
2023-01-13T11:37:44.608Z,99460.02
2023-01-13T11:39:49.070Z,99450.53
2023-01-13T11:41:53.556Z,99450.58
2023-01-13T11:43:57.985Z,99439.38
2023-01-13T11:46:02.359Z,99441.53
2023-01-13T11:48:06.710Z,99447.16
2023-01-13T11:50:11.117Z,99452.27
2023-01-13T11:52:15.512Z,99457.88
2023-01-13T11:54:19.895Z,99452.66
2023-01-13T11:56:24.426Z,99448.05
2023-01-13T11:58:31.746Z,99450.84
2023-01-13T12:00:48.816Z,99447.44
2023-01-13T12:02:53.295Z,99452.39
2023-01-13T12:04:57.960Z,99453.73
2023-01-13T12:07:02.272Z,99454.03
2023-01-13T12:09:06.625Z,99452.87
2023-01-13T12:11:11.104Z,99451.08
2023-01-13T12:13:15.533Z,99452.14
2023-01-13T12:15:19.927Z,99456.59
2023-01-13T12:17:24.347Z,99450.39
2023-01-13T12:19:28.877Z,99453.88
2023-01-13T12:21:33.248Z,99454.42
2023-01-13T12:23:37.803Z,99451.44
2023-01-13T12:25:42.193Z,99451.22
2023-01-13T12:27:48.574Z,99453.59
2023-01-13T12:29:53.014Z,99454.73
2023-01-13T12:31:57.472Z,99461.28
2023-01-13T12:34:01.972Z,99462.42
2023-01-13T12:36:06.282Z,99460.21
2023-01-13T12:38:10.803Z,99459.38
2023-01-13T12:40:15.172Z,99451.19
2023-01-13T12:42:19.608Z,99459.08
2023-01-13T12:44:23.966Z,99453.45
2023-01-13T12:46:28.349Z,99460.73
2023-01-13T12:48:32.737Z,99461.3
2023-01-13T12:50:37.153Z,99461.31
2023-01-13T12:52:41.621Z,99463.11
2023-01-13T12:54:46.194Z,99463.58
2023-01-13T12:56:50.495Z,99462.1
2023-01-13T12:58:54.840Z,99462.36
2023-01-13T13:00:59.592Z,99461.59
2023-01-13T13:03:04.316Z,99458.86
2023-01-13T13:05:08.810Z,99459.81
2023-01-13T13:07:13.165Z,99466.61
2023-01-13T13:09:17.528Z,99465.8
2023-01-13T13:11:21.944Z,99469.42
2023-01-13T13:13:26.283Z,99473.89
2023-01-13T13:15:30.595Z,99480.25
2023-01-13T13:17:34.896Z,99475.45
2023-01-13T13:19:39.218Z,99479.3
2023-01-13T13:21:43.492Z,99473.13
2023-01-13T13:23:47.816Z,99480.41
2023-01-13T13:25:52.256Z,99482.33
2023-01-13T13:27:56.644Z,99486.48
2023-01-13T13:30:01.155Z,99490.36
2023-01-13T13:32:05.517Z,99486.17
2023-01-13T13:34:09.861Z,99483.66
2023-01-13T13:36:14.349Z,99490.61
2023-01-13T13:38:18.689Z,99492.05
2023-01-13T13:40:23.050Z,99491.2
2023-01-13T13:42:27.407Z,99491.77
2023-01-13T13:44:31.870Z,99499
2023-01-13T13:46:36.377Z,99498.88
2023-01-13T13:48:40.879Z,99499.19
2023-01-13T13:50:45.238Z,99499.51
2023-01-13T13:52:49.608Z,99503.66
2023-01-13T13:54:53.957Z,99506.91
2023-01-13T13:56:58.374Z,99511.55
2023-01-13T13:59:02.707Z,99511.84
2023-01-13T14:01:07.286Z,99516.28
2023-01-13T14:03:11.768Z,99517.81
2023-01-13T14:05:16.163Z,99520.29
2023-01-13T14:07:20.640Z,99518.78
2023-01-13T14:09:24.967Z,99530.56
2023-01-13T14:11:29.372Z,99529.15
2023-01-13T14:13:33.757Z,99538.42
2023-01-13T14:15:38.161Z,99544.36
2023-01-13T14:17:42.688Z,99544.02
2023-01-13T14:19:47.014Z,99554.65
2023-01-13T14:21:51.357Z,99559.63
2023-01-13T14:23:55.713Z,99554.55
2023-01-13T14:26:00.054Z,99557.77
2023-01-13T14:28:04.427Z,99563.09
2023-01-13T14:30:08.991Z,99562.89
2023-01-13T14:32:13.324Z,99564.09
2023-01-13T14:34:33.850Z,99569.03
2023-01-13T14:36:38.155Z,99571.44
2023-01-13T14:38:42.590Z,99569.2
2023-01-13T14:40:46.991Z,99575.06
2023-01-13T14:42:51.389Z,99575.77
2023-01-13T14:44:57.385Z,99579.91
2023-01-13T14:47:01.742Z,99580.03
2023-01-13T14:49:06.091Z,99578.13
2023-01-13T14:51:10.548Z,99576.77
2023-01-13T14:53:14.920Z,99582.88
2023-01-13T14:55:19.333Z,99587.48
2023-01-13T14:57:23.761Z,99589.3
2023-01-13T14:59:28.132Z,99590.98
2023-01-13T15:01:32.816Z,99588.14
2023-01-13T15:03:43.440Z,99589.11
2023-01-13T15:05:47.848Z,99593.19
2023-01-13T15:07:52.157Z,99594.12
2023-01-13T15:09:56.581Z,99594.75
2023-01-13T15:12:01.024Z,99594.78
2023-01-13T15:14:05.418Z,99583.36
2023-01-13T15:16:09.870Z,99583.33
2023-01-13T15:18:14.339Z,99590.86
2023-01-13T15:20:18.729Z,99598.52
2023-01-13T15:22:23.074Z,99586.77
2023-01-13T15:24:27.421Z,99594.11
2023-01-13T15:26:31.836Z,99602.19
2023-01-13T15:28:36.193Z,99608.77
2023-01-13T15:30:40.514Z,99605.56
2023-01-13T15:32:44.878Z,99607.55
2023-01-13T15:34:49.307Z,99607.03
2023-01-13T15:36:53.703Z,99603.7
2023-01-13T15:38:58.134Z,99599.76
2023-01-13T15:41:02.490Z,99597.59
2023-01-13T15:43:06.962Z,99592.36
2023-01-13T15:45:11.325Z,99591.83
2023-01-13T15:47:15.892Z,99591.84
2023-01-13T15:49:20.280Z,99591.45
2023-01-13T15:51:24.640Z,99591.22
2023-01-13T15:53:29.147Z,99593.43
2023-01-13T15:55:33.544Z,99593.41
2023-01-13T15:57:37.946Z,99603.34
2023-01-13T15:59:42.334Z,99608.88
2023-01-13T16:01:46.817Z,99599.24
2023-01-13T16:03:51.416Z,99601.9
2023-01-13T16:05:55.802Z,99602.34
2023-01-13T16:08:00.174Z,99603.78
2023-01-13T16:10:04.543Z,99610.18
2023-01-13T16:12:09.078Z,99609.92
2023-01-13T16:14:13.483Z,99622.17
2023-01-13T16:16:18.026Z,99614.59
2023-01-13T16:18:22.529Z,99619.34
2023-01-13T16:20:26.897Z,99626.64
2023-01-13T16:22:31.368Z,99625.63
2023-01-13T16:24:35.757Z,99624.71
2023-01-13T16:26:40.151Z,99633.36
2023-01-13T16:28:44.674Z,99625.95
2023-01-13T16:30:49.060Z,99641.14
2023-01-13T16:32:53.460Z,99648.27
2023-01-13T16:34:59.845Z,99653.3
2023-01-13T16:37:04.273Z,99650.35
2023-01-13T16:39:08.613Z,99652.91
2023-01-13T16:41:13.001Z,99654.78
2023-01-13T16:43:17.379Z,99657.2
2023-01-13T16:45:21.789Z,99659.56
2023-01-13T16:47:26.150Z,99654.48
2023-01-13T16:49:30.507Z,99655.1
2023-01-13T16:51:34.924Z,99663.41
2023-01-13T16:53:39.288Z,99660.57
2023-01-13T16:55:43.657Z,99664.08
2023-01-13T16:57:48.034Z,99670.14
2023-01-13T16:59:52.486Z,99675.22
2023-01-13T17:01:57.068Z,99671.8
2023-01-13T17:04:01.534Z,99670.7
2023-01-13T17:06:05.938Z,99676.75
2023-01-13T17:08:10.325Z,99682.08
2023-01-13T17:10:14.602Z,99690.24
2023-01-13T17:12:18.890Z,99690.44
2023-01-13T17:14:23.155Z,99695.56
2023-01-13T17:16:27.769Z,99695.44
2023-01-13T17:18:32.194Z,99691.82
2023-01-13T17:20:36.527Z,99691.55
2023-01-13T17:22:41.399Z,99686.89
2023-01-13T17:24:49.894Z,99683.94
2023-01-13T17:26:54.259Z,99684.45
2023-01-13T17:28:58.669Z,99685.03
2023-01-13T17:31:03.137Z,99682.38
2023-01-13T17:33:07.541Z,99685.13
2023-01-13T17:35:11.962Z,99697.56
2023-01-13T17:37:16.408Z,99699.27
2023-01-13T17:39:20.869Z,99705.25
2023-01-13T17:41:25.356Z,99707.23
2023-01-13T17:43:30.021Z,99702.86
2023-01-13T17:45:34.526Z,99708.5
2023-01-13T17:47:39.027Z,99706.98
2023-01-13T17:49:43.523Z,99704.28
2023-01-13T17:51:48.060Z,99704.17
2023-01-13T17:53:52.440Z,99708.12
2023-01-13T17:55:56.954Z,99708.46
2023-01-13T17:58:01.602Z,99710.91
2023-01-13T18:00:05.985Z,99713.73
2023-01-13T18:02:10.720Z,99715.14
2023-01-13T18:04:15.455Z,99717.66
2023-01-13T18:06:19.952Z,99720.45
2023-01-13T18:08:24.342Z,99716.89
2023-01-13T18:10:28.776Z,99718.84
2023-01-13T18:12:33.191Z,99722.31
2023-01-13T18:14:37.553Z,99718.05
2023-01-13T18:16:42.142Z,99714.67
2023-01-13T18:18:46.951Z,99720.81
2023-01-13T18:20:52.157Z,99717.77
2023-01-13T18:22:56.547Z,99723.75
2023-01-13T18:25:00.919Z,99733.08
2023-01-13T18:27:05.354Z,99741.78
2023-01-13T18:29:09.882Z,99741.33
2023-01-13T18:31:14.365Z,99743.57
2023-01-13T18:33:18.862Z,99736.3
2023-01-13T18:35:23.204Z,99730.36
2023-01-13T18:37:27.594Z,99735.77
2023-01-13T18:39:32.111Z,99732.9
2023-01-13T18:41:36.484Z,99729.48
2023-01-13T18:43:40.937Z,99735.06
2023-01-13T18:45:45.336Z,99742.08
2023-01-13T18:47:49.789Z,99744.5
2023-01-13T18:49:54.164Z,99746.35
2023-01-13T18:51:58.508Z,99746.81
2023-01-13T18:54:02.884Z,99749.23
2023-01-13T18:56:07.303Z,99755.61
2023-01-13T18:58:11.686Z,99760.97
2023-01-13T19:00:16.066Z,99756.86
2023-01-13T19:02:21.077Z,99759.02
2023-01-13T19:04:25.633Z,99761.1
2023-01-13T19:06:32.692Z,99764.7
2023-01-13T19:08:37.301Z,99763.82
2023-01-13T19:10:41.691Z,99769.46
2023-01-13T19:12:46.064Z,99781.47
2023-01-13T19:14:50.420Z,99786.63
2023-01-13T19:16:54.786Z,99790.88
2023-01-13T19:18:59.165Z,99792.19
2023-01-13T19:21:03.509Z,99796.89
2023-01-13T19:23:07.917Z,99798.58
2023-01-13T19:25:12.321Z,99804.56
2023-01-13T19:27:16.708Z,99809.26
2023-01-13T19:29:21.151Z,99801.74
2023-01-13T19:31:26.164Z,99804.56
2023-01-13T19:33:30.689Z,99794.63
2023-01-13T19:35:35.142Z,99799.83
2023-01-13T19:37:39.502Z,99796.53
2023-01-13T19:39:43.851Z,99796.41
2023-01-13T19:41:48.219Z,99796.2
2023-01-13T19:43:52.723Z,99805.17
2023-01-13T19:45:57.146Z,99806.2
2023-01-13T19:48:01.584Z,99801.52
2023-01-13T19:50:06.032Z,99802.38
2023-01-13T19:52:10.694Z,99804.85
2023-01-13T19:54:15.032Z,99807.61
2023-01-13T19:56:19.505Z,99810.92
2023-01-13T19:58:23.864Z,99811.3
2023-01-13T20:00:28.211Z,99818.2
2023-01-13T20:02:32.855Z,99818.69
2023-01-13T20:04:37.276Z,99824.83
2023-01-13T20:06:41.771Z,99824.13
2023-01-13T20:08:46.356Z,99828.88
2023-01-13T20:10:50.787Z,99829.24
2023-01-13T20:12:55.147Z,99828.58
2023-01-13T20:14:59.526Z,99836.7
2023-01-13T20:17:03.922Z,99843.25
2023-01-13T20:19:08.245Z,99846.38
2023-01-13T20:21:12.603Z,99851.21
2023-01-13T20:23:16.947Z,99856.64
2023-01-13T20:25:21.462Z,99863.19
2023-01-13T20:27:25.902Z,99860.05
2023-01-13T20:29:30.267Z,99862.02
2023-01-13T20:31:34.818Z,99854.31
2023-01-13T20:33:39.281Z,99851.64
2023-01-13T20:35:43.651Z,99859.14
2023-01-13T20:37:47.993Z,99860.44
2023-01-13T20:39:52.352Z,99857.79
2023-01-13T20:41:56.753Z,99867.48
2023-01-13T20:44:01.144Z,99877.98
2023-01-13T20:46:05.518Z,99881.89
2023-01-13T20:48:09.924Z,99888.59
2023-01-13T20:50:14.303Z,99887.38
2023-01-13T20:52:18.726Z,99889.38
2023-01-13T20:54:23.181Z,99897.13
2023-01-13T20:56:27.581Z,99900.32
2023-01-13T20:58:32.019Z,99902.59
2023-01-13T21:00:36.477Z,99900.98
2023-01-13T21:02:40.912Z,99900.75
2023-01-13T21:04:45.397Z,99906.42
2023-01-13T21:06:49.938Z,99912.55
2023-01-13T21:08:54.303Z,99910.75
2023-01-13T21:10:58.814Z,99911.67
2023-01-13T21:13:03.244Z,99913.08
2023-01-13T21:15:07.612Z,99917.61
2023-01-13T21:17:12.076Z,99917.3
2023-01-13T21:19:17.143Z,99917.77
2023-01-13T21:21:21.961Z,99912.34
2023-01-13T21:23:26.351Z,99921.64
2023-01-13T21:25:30.701Z,99923.8
2023-01-13T21:27:36.908Z,99922.24
2023-01-13T21:29:41.321Z,99924.38
2023-01-13T21:31:45.912Z,99925.32
2023-01-13T21:33:50.336Z,99927.34
2023-01-13T21:35:54.769Z,99933.48
2023-01-13T21:37:59.195Z,99929.33
2023-01-13T21:40:03.610Z,99930.09
2023-01-13T21:42:08.023Z,99929.99
2023-01-13T21:44:12.407Z,99929.95
2023-01-13T21:46:16.908Z,99930.06
2023-01-13T21:48:21.330Z,99928.17
2023-01-13T21:50:25.677Z,99928.69
2023-01-13T21:52:30.068Z,99935.09
2023-01-13T21:54:34.466Z,99934.8
2023-01-13T21:56:38.847Z,99934.19
2023-01-13T21:58:43.179Z,99936.56
2023-01-13T22:00:50.562Z,99943.17
2023-01-13T22:02:55.101Z,99942.63
2023-01-13T22:04:59.629Z,99942.55
2023-01-13T22:07:04.006Z,99941.9
2023-01-13T22:09:08.377Z,99947.88
2023-01-13T22:11:12.747Z,99945.52
2023-01-13T22:13:17.105Z,99952.18
2023-01-13T22:15:21.436Z,99952.27
2023-01-13T22:17:25.926Z,99954.44
2023-01-13T22:19:30.335Z,99951.25
2023-01-13T22:21:35.553Z,99955.94
2023-01-13T22:23:39.921Z,99958.54
2023-01-13T22:25:44.346Z,99958.09
2023-01-13T22:27:48.707Z,99955.09
2023-01-13T22:29:53.077Z,99958.98
2023-01-13T22:31:57.603Z,99957.48
2023-01-13T22:34:02.050Z,99956.97
2023-01-13T22:36:06.405Z,99958.91
2023-01-13T22:38:10.791Z,99961.81
2023-01-13T22:40:15.133Z,99960.8
2023-01-13T22:42:19.496Z,99959.88
2023-01-13T22:44:23.856Z,99961.61
2023-01-13T22:46:28.198Z,99967.91
2023-01-13T22:48:32.577Z,99972.19
2023-01-13T22:50:36.961Z,99971.88
2023-01-13T22:52:41.359Z,99972.53
2023-01-13T22:54:45.753Z,99978.8
2023-01-13T22:56:50.103Z,99980.06
2023-01-13T22:58:54.496Z,99981.36
2023-01-13T23:00:59.012Z,99980.91
2023-01-13T23:03:03.404Z,99979.66
2023-01-13T23:05:07.760Z,99987.15
2023-01-13T23:07:12.186Z,99976.2
2023-01-13T23:09:16.551Z,99980.27
2023-01-13T23:11:20.919Z,99980.7
2023-01-13T23:13:25.344Z,99978.82
2023-01-13T23:15:29.698Z,99976.14
2023-01-13T23:17:34.101Z,99974.77
2023-01-13T23:19:38.495Z,99986.18
2023-01-13T23:21:42.871Z,99995.58
2023-01-13T23:23:47.213Z,99990.27
2023-01-13T23:25:51.661Z,99994.38
2023-01-13T23:27:55.999Z,99991.53
2023-01-13T23:30:00.456Z,100002.73
2023-01-13T23:32:04.865Z,100000.46
2023-01-13T23:34:09.303Z,99996.69
2023-01-13T23:36:13.748Z,99999.44
2023-01-13T23:38:18.082Z,99996.02
2023-01-13T23:40:22.428Z,100001.11
2023-01-13T23:42:26.915Z,99995.38
2023-01-13T23:44:31.512Z,99995.84
2023-01-13T23:46:35.920Z,99998.49
2023-01-13T23:48:40.267Z,99994.11
2023-01-13T23:50:44.700Z,99994.34
2023-01-13T23:52:49.074Z,100001.22
2023-01-13T23:54:53.514Z,99998.39
2023-01-13T23:56:57.895Z,99996.78
2023-01-13T23:59:02.271Z,99999.26
